DEKPA EDLW-

Flight info

Callsign DEKPA
Flight time N/A
Altitude
Route
Aircraft DA40

Departure

Time 2026-05-05 15:13
Airport Dortmund Airport (EDLW)

Arrival

Time N/A
Airport -
Time Latitude Longitude Altitude Speed Heading
2026-05-05 15:08 51.51289 7.60661 456 ft 0 kts 130°
2026-05-05 15:09 51.51293 7.60587 452 ft 17 kts 257°
2026-05-05 15:09 51.51222 7.60374 451 ft 23 kts 240°
2026-05-05 15:10 51.51157 7.60219 456 ft 15 kts 242°
2026-05-05 15:10 51.51216 7.60219 442 ft 20 kts 59°
2026-05-05 15:10 51.51292 7.60434 432 ft 24 kts 61°
2026-05-05 15:10 51.51377 7.60676 433 ft 26 kts 60°
2026-05-05 15:11 51.51460 7.60911 430 ft 25 kts 61°
2026-05-05 15:11 51.51544 7.61057 426 ft 14 kts 342°
2026-05-05 15:11 51.51566 7.60940 419 ft 16 kts 255°
2026-05-05 15:11 51.51530 7.60733 417 ft 20 kts 254°
2026-05-05 15:12 51.51585 7.60608 415 ft 14 kts 354°
2026-05-05 15:12 51.51665 7.60750 415 ft 37 kts 59°
2026-05-05 15:12 51.51867 7.61319 538 ft 65 kts 56°
2026-05-05 15:12 51.52073 7.61983 776 ft 71 kts 57°
2026-05-05 15:13 51.52321 7.62731 969 ft 78 kts 53°
2026-05-05 15:13 51.52654 7.63529 1089 ft 94 kts 40°
2026-05-05 15:13 51.53224 7.63770 1231 ft 92 kts 345°
2026-05-05 15:13 51.53558 7.62886 1126 ft 116 kts 270°
2026-05-05 15:14 51.53230 7.61780 1294 ft 107 kts 243°
2026-05-05 15:14 51.52825 7.60743 1327 ft 113 kts 238°
2026-05-05 15:14 51.52356 7.59705 1341 ft 116 kts 236°
2026-05-05 15:14 51.51877 7.58640 1288 ft 122 kts 236°
2026-05-05 15:15 51.51213 7.58067 1102 ft 114 kts 167°
2026-05-05 15:15 51.50999 7.58918 847 ft 95 kts 63°
2026-05-05 15:15 51.51314 7.59810 638 ft 88 kts 53°
2026-05-05 15:15 51.51621 7.60637 441 ft 84 kts 55°
2026-05-05 15:16 51.51886 7.61378 413 ft 68 kts 58°
2026-05-05 15:16 51.52140 7.62139 584 ft 78 kts 54°
2026-05-05 15:16 51.52407 7.62917 824 ft 78 kts 52°
2026-05-05 15:16 51.52693 7.63658 1076 ft 81 kts 44°
2026-05-05 15:17 51.53154 7.63540 1380 ft 81 kts 333°
2026-05-05 15:17 51.53388 7.62601 1472 ft 113 kts 272°